Time;durP1;ratioP1;P1;durP2;ratioP2;P2;SDS_P1;SDS_P2;PMS_P1;PMS_P2;Temp;Humidity;BMP_temperature;BMP_pressure;BME280_temperature;BME280_humidity;BME280_pressure;Samples;Min_cycle;Max_cycle;Signal;HPM_P1;HPM_P2
2021/06/19 00:00:17;;;;;;;5.20;4.57;;;;;;;;;;5027697;28;20071;-49
2021/06/19 00:02:42;;;;;;;5.00;4.50;;;;;;;;;;5028585;28;20053;-50
2021/06/19 00:05:08;;;;;;;5.30;4.85;;;;;;;;;;5027258;28;20065;-53
2021/06/19 00:07:33;;;;;;;4.85;4.43;;;;;;;;;;5010175;28;20436;-53
2021/06/19 00:09:59;;;;;;;5.40;4.90;;;;;;;;;;5027293;28;20108;-55
2021/06/19 00:12:24;;;;;;;5.20;4.60;;;;;;;;;;5028515;28;20497;-50
2021/06/19 00:14:50;;;;;;;5.13;4.63;;;;;;;;;;5028867;28;20028;-54
2021/06/19 00:17:15;;;;;;;4.97;4.47;;;;;;;;;;5047596;28;20033;-51
2021/06/19 00:19:40;;;;;;;4.78;4.38;;;;;;;;;;5042499;28;20045;-56
2021/06/19 00:22:06;;;;;;;4.97;4.50;;;;;;;;;;5007856;28;20029;-54
2021/06/19 00:24:37;;;;;;;5.13;4.63;;;;;;;;;;5028332;28;20033;-50
2021/06/19 00:27:03;;;;;;;5.75;4.65;;;;;;;;;;5025044;28;20611;-53
2021/06/19 00:29:30;;;;;;;5.45;4.95;;;;;;;;;;5026989;28;20108;-51
2021/06/19 00:31:56;;;;;;;4.85;4.43;;;;;;;;;;5027990;28;20028;-50
2021/06/19 00:34:21;;;;;;;5.07;4.20;;;;;;;;;;5010359;28;20017;-53
2021/06/19 00:36:46;;;;;;;5.25;4.80;;;;;;;;;;5028132;28;20108;-50
2021/06/19 00:39:12;;;;;;;5.10;4.60;;;;;;;;;;5028092;28;20064;-50
2021/06/19 00:41:37;;;;;;;5.25;4.55;;;;;;;;;;5028238;28;20186;-53
2021/06/19 00:44:04;;;;;;;5.18;4.68;;;;;;;;;;5027266;28;20033;-50
2021/06/19 00:46:29;;;;;;;4.57;4.18;;;;;;;;;;5027706;28;20112;-56
2021/06/19 00:48:55;;;;;;;5.03;4.57;;;;;;;;;;5027616;28;20116;-51
2021/06/19 00:51:20;;;;;;;5.05;4.55;;;;;;;;;;5027297;28;20026;-51
2021/06/19 00:53:45;;;;;;;4.78;4.38;;;;;;;;;;5036881;28;20106;-54
2021/06/19 00:56:11;;;;;;;5.25;4.65;;;;;;;;;;5047373;28;20492;-52
2021/06/19 00:58:36;;;;;;;4.90;4.45;;;;;;;;;;5047427;28;20524;-51
2021/06/19 01:01:02;;;;;;;4.80;4.30;;;;;;;;;;5007311;28;20049;-54
2021/06/19 01:03:27;;;;;;;5.10;4.60;;;;;;;;;;5023830;28;20017;-53
2021/06/19 01:05:53;;;;;;;4.97;4.47;;;;;;;;;;5027058;28;20032;-55
2021/06/19 01:08:18;;;;;;;4.75;4.35;;;;;;;;;;5026316;28;20033;-52
2021/06/19 01:10:43;;;;;;;4.53;4.13;;;;;;;;;;5027760;28;20056;-53
2021/06/19 01:13:09;;;;;;;4.63;4.13;;;;;;;;;;5017623;28;20470;-49
2021/06/19 01:15:34;;;;;;;4.80;4.40;;;;;;;;;;5011182;28;20519;-53
2021/06/19 01:18:00;;;;;;;5.28;4.78;;;;;;;;;;5026724;28;20108;-53
2021/06/19 01:20:25;;;;;;;4.95;4.55;;;;;;;;;;5027328;28;20401;-51
2021/06/19 01:22:53;;;;;;;4.95;4.45;;;;;;;;;;5032441;28;20029;-50
2021/06/19 01:25:23;;;;;;;4.90;4.50;;;;;;;;;;5047113;28;20029;-53
2021/06/19 01:27:49;;;;;;;4.97;4.57;;;;;;;;;;5035473;28;20048;-52
2021/06/19 01:30:15;;;;;;;4.63;4.22;;;;;;;;;;5031541;28;20105;-52
2021/06/19 01:32:41;;;;;;;6.05;5.45;;;;;;;;;;5030682;28;20384;-50
2021/06/19 01:35:07;;;;;;;5.47;4.70;;;;;;;;;;5030907;28;20025;-50
2021/06/19 01:37:32;;;;;;;5.03;4.53;;;;;;;;;;5013322;28;20482;-54
2021/06/19 01:40:21;;;;;;;4.65;4.25;;;;;;;;;;5031001;28;20033;-50
2021/06/19 01:42:47;;;;;;;4.68;4.28;;;;;;;;;;5027074;28;20624;-53
2021/06/19 01:45:18;;;;;;;4.80;4.40;;;;;;;;;;5047631;28;20028;-55
2021/06/19 01:47:44;;;;;;;4.65;4.25;;;;;;;;;;5030240;28;20052;-54
2021/06/19 01:50:17;;;;;;;4.45;4.05;;;;;;;;;;5028537;28;20065;-53
2021/06/19 01:52:43;;;;;;;5.15;4.55;;;;;;;;;;5034691;28;20381;-54
2021/06/19 01:55:08;;;;;;;4.88;4.43;;;;;;;;;;5048787;28;20031;-51
2021/06/19 01:57:37;;;;;;;4.65;4.15;;;;;;;;;;5050478;28;20051;-53
2021/06/19 02:00:12;;;;;;;5.38;4.63;;;;;;;;;;5041046;28;20030;-51
2021/06/19 02:02:38;;;;;;;4.68;4.28;;;;;;;;;;5032537;28;20032;-55
2021/06/19 02:05:04;;;;;;;5.07;4.57;;;;;;;;;;5049803;28;20043;-55
2021/06/19 02:07:31;;;;;;;5.05;4.55;;;;;;;;;;5049884;28;20025;-55
2021/06/19 02:09:57;;;;;;;4.90;4.40;;;;;;;;;;5049398;28;20468;-56
2021/06/19 02:12:22;;;;;;;4.55;4.15;;;;;;;;;;5030444;28;20029;-52
2021/06/19 02:14:47;;;;;;;5.18;4.40;;;;;;;;;;5029996;28;20024;-50
2021/06/19 02:17:13;;;;;;;4.60;4.20;;;;;;;;;;5015399;28;20050;-56
2021/06/19 02:19:38;;;;;;;4.93;4.43;;;;;;;;;;5010515;28;20101;-54
2021/06/19 02:22:04;;;;;;;5.00;4.50;;;;;;;;;;5020443;28;20112;-49
2021/06/19 02:24:29;;;;;;;4.70;4.30;;;;;;;;;;5008424;28;20054;-56
2021/06/19 02:27:11;;;;;;;4.45;4.05;;;;;;;;;;5011755;28;20480;-52
2021/06/19 02:29:36;;;;;;;4.85;4.35;;;;;;;;;;5010367;28;20076;-52
2021/06/19 02:32:03;;;;;;;4.30;3.90;;;;;;;;;;5008412;28;20029;-53
2021/06/19 02:34:28;;;;;;;5.13;4.63;;;;;;;;;;5029522;28;20033;-51
2021/06/19 02:36:54;;;;;;;5.47;4.35;;;;;;;;;;5029901;28;20040;-56
2021/06/19 02:39:19;;;;;;;4.10;3.70;;;;;;;;;;5029961;28;20048;-55
2021/06/19 02:41:45;;;;;;;4.70;4.30;;;;;;;;;;5030451;28;20083;-51
2021/06/19 02:44:10;;;;;;;4.80;4.40;;;;;;;;;;5029357;28;20095;-53
2021/06/19 02:46:35;;;;;;;4.68;4.28;;;;;;;;;;5029729;28;20064;-57
2021/06/19 02:49:01;;;;;;;4.47;4.05;;;;;;;;;;5029585;28;20113;-53
2021/06/19 02:51:26;;;;;;;4.68;4.15;;;;;;;;;;5028451;28;20021;-53
2021/06/19 02:53:51;;;;;;;4.63;4.22;;;;;;;;;;5028899;28;20079;-56
2021/06/19 02:56:17;;;;;;;4.50;4.10;;;;;;;;;;5029292;28;20026;-55
2021/06/19 02:58:42;;;;;;;4.90;4.45;;;;;;;;;;5029725;28;20533;-50
2021/06/19 03:01:08;;;;;;;4.43;4.03;;;;;;;;;;5030081;28;20479;-52
2021/06/19 03:03:34;;;;;;;4.80;4.20;;;;;;;;;;5029345;28;20022;-54
2021/06/19 03:06:01;;;;;;;4.57;4.18;;;;;;;;;;5025955;28;20022;-52
2021/06/19 03:08:27;;;;;;;4.40;4.00;;;;;;;;;;5029553;28;20378;-51
2021/06/19 03:10:53;;;;;;;5.00;4.10;;;;;;;;;;5029668;28;20358;-53
2021/06/19 03:13:18;;;;;;;4.57;4.15;;;;;;;;;;5027739;28;20120;-53
2021/06/19 03:15:44;;;;;;;4.75;4.35;;;;;;;;;;4997601;28;20056;-53
2021/06/19 03:18:09;;;;;;;4.70;4.28;;;;;;;;;;5029086;28;20029;-51
2021/06/19 03:20:34;;;;;;;4.38;3.97;;;;;;;;;;5011530;28;20499;-51
2021/06/19 03:23:00;;;;;;;5.43;4.43;;;;;;;;;;5029692;28;20124;-59
2021/06/19 03:25:27;;;;;;;4.20;3.80;;;;;;;;;;5028823;28;20095;-50
2021/06/19 03:27:57;;;;;;;4.70;4.30;;;;;;;;;;5027879;28;20103;-50
2021/06/19 03:30:22;;;;;;;4.40;4.00;;;;;;;;;;5029049;28;20021;-50
2021/06/19 03:32:48;;;;;;;4.30;3.90;;;;;;;;;;5028147;28;20021;-51
2021/06/19 03:35:13;;;;;;;4.47;4.07;;;;;;;;;;5010844;28;20022;-50
2021/06/19 03:37:39;;;;;;;4.68;4.22;;;;;;;;;;5011595;28;20129;-55
2021/06/19 03:40:06;;;;;;;4.88;4.47;;;;;;;;;;5028458;28;20030;-50
2021/06/19 03:42:31;;;;;;;5.03;4.53;;;;;;;;;;5029098;28;20040;-53
2021/06/19 03:44:57;;;;;;;4.85;4.35;;;;;;;;;;5028301;28;20045;-51
2021/06/19 03:47:22;;;;;;;4.68;4.28;;;;;;;;;;5029154;28;20033;-49
2021/06/19 03:49:47;;;;;;;4.47;4.07;;;;;;;;;;5027510;28;20402;-52
2021/06/19 03:52:13;;;;;;;4.30;3.90;;;;;;;;;;5029181;28;20056;-53
2021/06/19 03:54:38;;;;;;;4.50;4.10;;;;;;;;;;5028548;28;20053;-56
2021/06/19 03:57:05;;;;;;;4.57;4.18;;;;;;;;;;5028619;28;20060;-54
2021/06/19 03:59:31;;;;;;;4.25;3.85;;;;;;;;;;5028553;28;20036;-52
2021/06/19 04:01:56;;;;;;;4.78;4.38;;;;;;;;;;5028143;28;20029;-55
2021/06/19 04:04:21;;;;;;;4.43;3.83;;;;;;;;;;5028143;28;20040;-50
2021/06/19 04:06:47;;;;;;;4.50;4.10;;;;;;;;;;5025289;28;20056;-56
2021/06/19 04:09:12;;;;;;;4.70;4.15;;;;;;;;;;5043641;28;20111;-53
2021/06/19 04:11:38;;;;;;;4.50;4.10;;;;;;;;;;5028237;28;20110;-50
2021/06/19 04:14:03;;;;;;;4.43;4.03;;;;;;;;;;5028184;28;20101;-54
2021/06/19 04:16:28;;;;;;;5.13;4.05;;;;;;;;;;5028174;28;20033;-50
2021/06/19 04:18:54;;;;;;;4.95;4.03;;;;;;;;;;5026995;28;20026;-57
2021/06/19 04:21:19;;;;;;;5.03;4.53;;;;;;;;;;5028674;28;20080;-57
2021/06/19 04:23:44;;;;;;;5.05;4.55;;;;;;;;;;5030599;23;20074;-61
2021/06/19 04:26:10;;;;;;;4.72;4.32;;;;;;;;;;4987444;28;20037;-61
2021/06/19 04:28:35;;;;;;;4.88;4.43;;;;;;;;;;4987566;28;20058;-59
2021/06/19 04:31:01;;;;;;;4.28;3.88;;;;;;;;;;4988609;28;20058;-60
2021/06/19 04:33:27;;;;;;;4.20;3.80;;;;;;;;;;4987265;28;20735;-61
2021/06/19 04:35:52;;;;;;;4.45;4.05;;;;;;;;;;4987380;28;20618;-60
2021/06/19 04:38:18;;;;;;;4.95;4.55;;;;;;;;;;4988104;28;20526;-61
2021/06/19 04:40:50;;;;;;;5.15;4.65;;;;;;;;;;4987885;28;20022;-61
2021/06/19 04:43:17;;;;;;;4.00;3.60;;;;;;;;;;4988480;28;20026;-60
2021/06/19 04:45:43;;;;;;;4.30;3.90;;;;;;;;;;4984720;28;20113;-59
2021/06/19 04:48:08;;;;;;;4.40;4.00;;;;;;;;;;4986167;28;20113;-61
2021/06/19 04:50:34;;;;;;;4.80;4.40;;;;;;;;;;4986069;28;20045;-59
2021/06/19 04:53:00;;;;;;;4.47;4.07;;;;;;;;;;4986343;28;20030;-60
2021/06/19 04:55:26;;;;;;;4.50;4.10;;;;;;;;;;4984290;28;20124;-60
2021/06/19 04:57:55;;;;;;;4.35;3.95;;;;;;;;;;4985533;28;20030;-61
2021/06/19 05:00:20;;;;;;;4.35;3.95;;;;;;;;;;4985789;28;20034;-60
2021/06/19 05:02:47;;;;;;;4.70;4.30;;;;;;;;;;4985524;28;20414;-62
2021/06/19 05:05:12;;;;;;;4.43;4.03;;;;;;;;;;4985270;28;20081;-61
2021/06/19 05:07:37;;;;;;;4.47;4.03;;;;;;;;;;4984990;28;20022;-61
2021/06/19 05:10:05;;;;;;;4.55;4.15;;;;;;;;;;4985035;28;20030;-61
2021/06/19 05:12:31;;;;;;;4.50;4.10;;;;;;;;;;4985239;28;20038;-60
2021/06/19 05:14:56;;;;;;;4.15;3.75;;;;;;;;;;4984392;28;20022;-60
2021/06/19 05:17:21;;;;;;;4.95;4.45;;;;;;;;;;4984813;28;20034;-61
2021/06/19 05:19:47;;;;;;;4.38;3.97;;;;;;;;;;4985224;28;20045;-61
2021/06/19 05:22:12;;;;;;;4.70;4.30;;;;;;;;;;4984140;28;20066;-59
2021/06/19 05:24:37;;;;;;;4.68;4.28;;;;;;;;;;4964987;28;20126;-61
2021/06/19 05:27:03;;;;;;;4.30;3.90;;;;;;;;;;4965826;28;20030;-62
2021/06/19 05:29:28;;;;;;;4.70;4.30;;;;;;;;;;4974042;28;20624;-60
2021/06/19 05:31:54;;;;;;;4.25;3.85;;;;;;;;;;4985614;28;20053;-61
2021/06/19 05:34:19;;;;;;;4.25;3.75;;;;;;;;;;4985539;28;20074;-61
2021/06/19 05:36:45;;;;;;;4.07;3.78;;;;;;;;;;4984517;28;20554;-61
2021/06/19 05:39:11;;;;;;;4.57;3.95;;;;;;;;;;4984366;28;20108;-60
2021/06/19 05:41:38;;;;;;;4.20;3.80;;;;;;;;;;4985923;28;20475;-59
2021/06/19 05:44:07;;;;;;;4.00;3.60;;;;;;;;;;4984944;28;20037;-61
2021/06/19 05:46:33;;;;;;;3.80;3.50;;;;;;;;;;4985071;28;20038;-61
2021/06/19 05:48:58;;;;;;;4.40;4.00;;;;;;;;;;4985151;28;20056;-60
2021/06/19 05:51:24;;;;;;;4.47;4.07;;;;;;;;;;4985009;28;20066;-61
2021/06/19 05:53:49;;;;;;;4.65;4.20;;;;;;;;;;4984979;28;20023;-61
2021/06/19 05:56:15;;;;;;;4.38;3.97;;;;;;;;;;4984704;28;20041;-60
2021/06/19 05:58:40;;;;;;;4.43;4.03;;;;;;;;;;4985492;28;20037;-60
2021/06/19 06:01:05;;;;;;;4.30;3.90;;;;;;;;;;4984291;28;20037;-60
2021/06/19 06:03:31;;;;;;;4.47;4.07;;;;;;;;;;4985097;28;20109;-61
2021/06/19 06:05:56;;;;;;;5.00;4.40;;;;;;;;;;4967157;28;20045;-60
2021/06/19 06:08:22;;;;;;;4.15;3.58;;;;;;;;;;4966418;28;20045;-59
2021/06/19 06:10:47;;;;;;;4.15;3.80;;;;;;;;;;4966267;28;20034;-60
2021/06/19 06:13:12;;;;;;;4.38;3.97;;;;;;;;;;4976874;28;20120;-60
2021/06/19 06:15:38;;;;;;;4.55;4.15;;;;;;;;;;4988514;28;20018;-61
2021/06/19 06:18:03;;;;;;;4.32;3.92;;;;;;;;;;4988971;28;20035;-59
2021/06/19 06:20:29;;;;;;;4.03;3.63;;;;;;;;;;4983189;28;20694;-59
2021/06/19 06:22:54;;;;;;;4.95;4.35;;;;;;;;;;4980197;28;20645;-60
2021/06/19 06:25:20;;;;;;;4.28;3.88;;;;;;;;;;4985262;28;20062;-60
2021/06/19 06:27:45;;;;;;;4.40;4.00;;;;;;;;;;4986483;28;20030;-60
2021/06/19 06:30:11;;;;;;;5.05;4.55;;;;;;;;;;4984924;28;20058;-61
2021/06/19 06:32:36;;;;;;;3.75;3.28;;;;;;;;;;4986352;28;20222;-61
2021/06/19 06:35:06;;;;;;;4.50;4.10;;;;;;;;;;4984350;28;20670;-59
2021/06/19 06:37:32;;;;;;;4.70;3.92;;;;;;;;;;4986568;28;20030;-60
2021/06/19 06:39:57;;;;;;;4.50;4.03;;;;;;;;;;4986608;28;20093;-61
2021/06/19 06:42:23;;;;;;;4.30;3.90;;;;;;;;;;4987436;28;20046;-59
2021/06/19 06:44:48;;;;;;;4.10;3.70;;;;;;;;;;4987250;28;20037;-60
2021/06/19 06:47:14;;;;;;;4.40;4.00;;;;;;;;;;4987472;28;20044;-59
2021/06/19 06:49:39;;;;;;;4.05;3.65;;;;;;;;;;4987960;28;20667;-60
2021/06/19 06:52:05;;;;;;;4.20;3.80;;;;;;;;;;4987579;28;20026;-59
2021/06/19 06:54:30;;;;;;;4.25;3.85;;;;;;;;;;4987113;28;20129;-58
2021/06/19 06:56:55;;;;;;;4.80;4.03;;;;;;;;;;4986326;28;20494;-61
2021/06/19 06:59:22;;;;;;;4.30;3.90;;;;;;;;;;4987943;28;20069;-61
2021/06/19 07:01:47;;;;;;;4.00;3.70;;;;;;;;;;4985917;28;20038;-60
2021/06/19 07:04:12;;;;;;;4.07;3.67;;;;;;;;;;4988234;28;20100;-61
2021/06/19 07:06:38;;;;;;;4.90;3.72;;;;;;;;;;4986488;28;20109;-60
2021/06/19 07:09:03;;;;;;;4.35;3.95;;;;;;;;;;4997750;28;20146;-60
2021/06/19 07:11:29;;;;;;;3.67;3.33;;;;;;;;;;4988218;28;20078;-60
2021/06/19 07:13:54;;;;;;;4.00;3.60;;;;;;;;;;4988841;28;20050;-61
2021/06/19 07:16:20;;;;;;;4.60;4.20;;;;;;;;;;4987100;28;20105;-60
2021/06/19 07:18:46;;;;;;;5.35;4.20;;;;;;;;;;4986944;28;20077;-60
2021/06/19 07:21:11;;;;;;;4.30;3.90;;;;;;;;;;4987711;28;20660;-59
2021/06/19 07:23:36;;;;;;;4.53;4.13;;;;;;;;;;4987526;28;20038;-60
2021/06/19 07:26:02;;;;;;;4.18;3.78;;;;;;;;;;4986288;28;20113;-60
2021/06/19 07:28:28;;;;;;;4.20;3.80;;;;;;;;;;4988666;28;20105;-61
2021/06/19 07:30:55;;;;;;;4.05;3.67;;;;;;;;;;4988302;28;20101;-61
2021/06/19 07:33:20;;;;;;;4.03;3.63;;;;;;;;;;4990035;28;20411;-61
2021/06/19 07:35:45;;;;;;;4.60;3.72;;;;;;;;;;4989157;28;20061;-61
2021/06/19 07:38:11;;;;;;;4.10;3.70;;;;;;;;;;4990067;28;20431;-60
2021/06/19 07:40:36;;;;;;;4.30;3.90;;;;;;;;;;4988468;28;20065;-61
2021/06/19 07:43:02;;;;;;;4.40;4.00;;;;;;;;;;4987926;28;20026;-59
2021/06/19 07:45:27;;;;;;;4.10;3.72;;;;;;;;;;4979345;28;20038;-59
2021/06/19 07:47:53;;;;;;;4.00;3.60;;;;;;;;;;4980455;28;20133;-61
2021/06/19 07:50:18;;;;;;;4.10;3.70;;;;;;;;;;4988798;28;20463;-59
2021/06/19 07:52:43;;;;;;;4.18;3.78;;;;;;;;;;4988782;28;20113;-61
2021/06/19 07:55:09;;;;;;;4.78;4.38;;;;;;;;;;4988331;28;20094;-61
2021/06/19 07:57:35;;;;;;;4.68;3.55;;;;;;;;;;4983834;28;20525;-60
2021/06/19 08:00:00;;;;;;;4.22;3.83;;;;;;;;;;4988504;28;20026;-61
2021/06/19 08:02:25;;;;;;;4.05;3.63;;;;;;;;;;4976680;28;20817;-60
2021/06/19 08:04:51;;;;;;;4.20;3.80;;;;;;;;;;4987684;28;20077;-60
2021/06/19 08:07:16;;;;;;;4.13;3.72;;;;;;;;;;4989070;28;20031;-59
2021/06/19 08:09:41;;;;;;;4.40;4.00;;;;;;;;;;4988470;28;20030;-61
2021/06/19 08:12:07;;;;;;;4.20;3.80;;;;;;;;;;4989527;28;20518;-60
2021/06/19 08:14:32;;;;;;;4.05;3.65;;;;;;;;;;4985896;28;20375;-61
2021/06/19 08:17:03;;;;;;;3.95;3.55;;;;;;;;;;4987915;28;20430;-61
2021/06/19 08:19:28;;;;;;;4.55;4.03;;;;;;;;;;4988411;28;20022;-61
2021/06/19 08:21:53;;;;;;;4.10;3.70;;;;;;;;;;4988998;28;20108;-59
2021/06/19 08:24:19;;;;;;;4.40;4.00;;;;;;;;;;4995405;28;20045;-59
2021/06/19 08:26:44;;;;;;;4.20;3.80;;;;;;;;;;4987968;28;20057;-61
2021/06/19 08:29:10;;;;;;;4.45;4.05;;;;;;;;;;4988439;28;20022;-59
2021/06/19 08:31:38;;;;;;;4.03;3.63;;;;;;;;;;4988458;28;20027;-61
2021/06/19 08:34:04;;;;;;;4.47;4.07;;;;;;;;;;4988364;28;20026;-58
2021/06/19 08:36:29;;;;;;;4.28;3.80;;;;;;;;;;4985967;28;20037;-60
2021/06/19 08:38:55;;;;;;;4.13;3.72;;;;;;;;;;4987556;28;20025;-60
2021/06/19 08:41:20;;;;;;;4.32;3.78;;;;;;;;;;4988022;28;20032;-61
2021/06/19 08:43:46;;;;;;;4.20;3.80;;;;;;;;;;4988394;28;20037;-61
2021/06/19 08:46:11;;;;;;;4.47;4.07;;;;;;;;;;4986096;28;20042;-60
2021/06/19 08:48:39;;;;;;;4.68;4.00;;;;;;;;;;4986848;28;20034;-60
2021/06/19 08:51:05;;;;;;;4.70;4.30;;;;;;;;;;4988116;28;20402;-60
2021/06/19 08:53:31;;;;;;;3.97;3.60;;;;;;;;;;4996217;28;20030;-60
2021/06/19 08:55:56;;;;;;;4.72;4.05;;;;;;;;;;4980955;28;20030;-61
2021/06/19 08:58:22;;;;;;;4.50;4.10;;;;;;;;;;4996614;28;20026;-60
2021/06/19 09:00:47;;;;;;;4.45;4.05;;;;;;;;;;4983944;28;20035;-61
2021/06/19 09:03:26;;;;;;;4.18;3.78;;;;;;;;;;4979354;28;20265;-60
2021/06/19 09:05:52;;;;;;;4.53;4.03;;;;;;;;;;4985813;28;20026;-60
2021/06/19 09:08:19;;;;;;;4.50;4.10;;;;;;;;;;4986585;28;20104;-60
2021/06/19 09:10:44;;;;;;;4.72;4.10;;;;;;;;;;4986952;28;20540;-60
2021/06/19 09:13:20;;;;;;;4.30;3.90;;;;;;;;;;4987457;28;20030;-61
2021/06/19 09:15:55;;;;;;;4.13;3.72;;;;;;;;;;4985865;28;20042;-60
2021/06/19 09:18:22;;;;;;;4.40;4.00;;;;;;;;;;4988579;28;20568;-60
2021/06/19 09:21:01;;;;;;;4.60;4.10;;;;;;;;;;4987556;28;20087;-60
2021/06/19 09:23:27;;;;;;;4.55;3.90;;;;;;;;;;4988449;28;20026;-61
2021/06/19 09:26:15;;;;;;;6.00;3.92;;;;;;;;;;4986773;28;20038;-60
2021/06/19 09:29:06;;;;;;;4.13;3.72;;;;;;;;;;4988424;28;20081;-60
2021/06/19 09:31:48;;;;;;;4.80;4.40;;;;;;;;;;4987103;28;20042;-61
2021/06/19 09:34:17;;;;;;;4.55;4.10;;;;;;;;;;4968916;28;20030;-60
2021/06/19 09:36:50;;;;;;;4.47;4.07;;;;;;;;;;4967767;28;20082;-60
2021/06/19 09:39:18;;;;;;;4.65;4.25;;;;;;;;;;4983291;28;20101;-61
2021/06/19 09:41:46;;;;;;;4.75;4.22;;;;;;;;;;4972821;28;20084;-61
2021/06/19 09:44:11;;;;;;;4.18;3.78;;;;;;;;;;4987918;28;20509;-59
2021/06/19 09:46:37;;;;;;;5.10;4.53;;;;;;;;;;4986706;28;20038;-61
2021/06/19 09:49:16;;;;;;;4.45;4.05;;;;;;;;;;4974088;28;20121;-60
2021/06/19 09:51:48;;;;;;;4.43;4.03;;;;;;;;;;4992029;28;20560;-60
2021/06/19 09:54:14;;;;;;;4.70;4.20;;;;;;;;;;4991029;28;20031;-61
2021/06/19 09:56:49;;;;;;;4.65;4.20;;;;;;;;;;4990331;28;20049;-59
2021/06/19 09:59:35;;;;;;;4.43;4.03;;;;;;;;;;4989165;28;20023;-60
2021/06/19 10:02:14;;;;;;;4.28;3.88;;;;;;;;;;4990025;28;20518;-60
2021/06/19 10:04:40;;;;;;;4.55;4.10;;;;;;;;;;4979542;28;20134;-60
2021/06/19 10:07:05;;;;;;;5.63;4.13;;;;;;;;;;4971563;28;20023;-60
2021/06/19 10:09:31;;;;;;;5.97;4.70;;;;;;;;;;4977187;28;20043;-59
2021/06/19 10:11:56;;;;;;;4.75;4.10;;;;;;;;;;5006497;28;20026;-61
2021/06/19 10:14:24;;;;;;;4.63;4.22;;;;;;;;;;4962527;28;20114;-61
2021/06/19 10:16:53;;;;;;;4.90;4.40;;;;;;;;;;4990396;28;20034;-61
2021/06/19 10:19:22;;;;;;;4.30;3.90;;;;;;;;;;4991113;28;20034;-61
2021/06/19 10:21:52;;;;;;;4.78;4.28;;;;;;;;;;4991328;28;20033;-59
2021/06/19 10:24:19;;;;;;;4.40;4.00;;;;;;;;;;4987434;28;20022;-60
2021/06/19 10:26:44;;;;;;;4.78;3.58;;;;;;;;;;4980201;28;20026;-61
2021/06/19 10:29:10;;;;;;;5.00;4.50;;;;;;;;;;4963933;28;21040;-61
2021/06/19 10:31:41;;;;;;;4.53;4.13;;;;;;;;;;4982815;28;20118;-59
2021/06/19 10:34:27;;;;;;;4.65;3.90;;;;;;;;;;4981250;28;20037;-60
2021/06/19 10:37:02;;;;;;;5.60;4.70;;;;;;;;;;4987732;28;20216;-61
2021/06/19 10:39:35;;;;;;;5.22;4.70;;;;;;;;;;4990934;28;20037;-58
2021/06/19 10:42:01;;;;;;;4.82;4.40;;;;;;;;;;5006221;28;20184;-61
2021/06/19 10:45:01;;;;;;;5.57;4.47;;;;;;;;;;4988472;28;20481;-61
2021/06/19 10:47:31;;;;;;;4.88;4.30;;;;;;;;;;4982872;28;20042;-59
2021/06/19 10:49:57;;;;;;;4.80;4.38;;;;;;;;;;4979825;28;20451;-61
2021/06/19 10:52:35;;;;;;;4.82;4.25;;;;;;;;;;4976750;28;20105;-61
2021/06/19 10:55:10;;;;;;;4.85;4.22;;;;;;;;;;4969526;28;20025;-59
2021/06/19 10:57:44;;;;;;;4.93;4.43;;;;;;;;;;4969485;28;20034;-61
2021/06/19 11:00:33;;;;;;;6.30;4.57;;;;;;;;;;4976022;28;20029;-60
2021/06/19 11:02:59;;;;;;;5.25;4.75;;;;;;;;;;4972100;28;20047;-61
2021/06/19 11:05:40;;;;;;;6.97;5.38;;;;;;;;;;4969376;28;20023;-62
2021/06/19 11:08:05;;;;;;;6.03;5.43;;;;;;;;;;4977433;28;20137;-58
2021/06/19 11:10:57;;;;;;;5.13;4.63;;;;;;;;;;4971961;28;20479;-64
2021/06/19 11:13:31;;;;;;;6.40;4.85;;;;;;;;;;4968822;28;20030;-64
2021/06/19 11:16:01;;;;;;;5.70;4.93;;;;;;;;;;4979876;28;20022;-63
2021/06/19 11:18:48;;;;;;;6.82;4.95;;;;;;;;;;4977069;28;20041;-64
2021/06/19 11:21:17;;;;;;;6.60;5.05;;;;;;;;;;4979163;28;20084;-60
2021/06/19 11:24:04;;;;;;;6.97;4.90;;;;;;;;;;4978932;28;20019;-62
2021/06/19 11:29:42;;;;;;;5.38;4.60;;;;;;;;;;5053824;28;20143;-64
2021/06/19 11:32:27;;;;;;;5.85;5.00;;;;;;;;;;5051376;28;20021;-64
2021/06/19 11:34:58;;;;;;;6.28;4.88;;;;;;;;;;5055108;28;20426;-65
2021/06/19 11:37:23;;;;;;;5.38;4.65;;;;;;;;;;5048568;28;20060;-64
2021/06/19 11:39:48;;;;;;;6.07;4.80;;;;;;;;;;5046969;28;20068;-64
2021/06/19 11:42:14;;;;;;;5.25;4.75;;;;;;;;;;5046603;28;20036;-64
2021/06/19 11:44:44;;;;;;;5.72;4.53;;;;;;;;;;5046772;28;20082;-63
2021/06/19 11:47:09;;;;;;;5.53;4.57;;;;;;;;;;5045547;28;20124;-64
2021/06/19 11:49:37;;;;;;;5.88;5.28;;;;;;;;;;5047915;28;20576;-64
2021/06/19 11:52:03;;;;;;;6.40;5.15;;;;;;;;;;5021023;28;20030;-63
2021/06/19 11:54:29;;;;;;;9.18;5.18;;;;;;;;;;5009263;28;20543;-64
2021/06/19 11:56:54;;;;;;;5.22;4.70;;;;;;;;;;5008694;28;20026;-65
2021/06/19 11:59:20;;;;;;;6.55;4.90;;;;;;;;;;5028704;28;20029;-64
2021/06/19 12:01:47;;;;;;;9.05;5.18;;;;;;;;;;5029389;28;20029;-64
2021/06/19 12:04:17;;;;;;;5.32;4.82;;;;;;;;;;5007975;28;20053;-64
2021/06/19 12:06:55;;;;;;;5.15;4.70;;;;;;;;;;5032797;28;20091;-64
2021/06/19 12:09:26;;;;;;;5.50;4.68;;;;;;;;;;5040168;28;20043;-65
2021/06/19 12:11:56;;;;;;;5.68;4.75;;;;;;;;;;5040270;28;20017;-64
2021/06/19 12:14:26;;;;;;;4.75;4.30;;;;;;;;;;5047131;28;20021;-64
2021/06/19 12:17:16;;;;;;;6.13;4.90;;;;;;;;;;5032462;28;20052;-63
2021/06/19 12:19:43;;;;;;;5.82;5.00;;;;;;;;;;5045279;28;20044;-63
2021/06/19 12:22:13;;;;;;;6.07;5.22;;;;;;;;;;5047779;28;20027;-64
2021/06/19 12:24:40;;;;;;;5.23;4.73;;;;;;;;;;5045466;28;20017;-63
2021/06/19 12:27:14;;;;;;;6.03;4.60;;;;;;;;;;5041738;28;20347;-64
2021/06/19 12:29:41;;;;;;;5.50;5.00;;;;;;;;;;5046773;28;20020;-63
2021/06/19 12:32:17;;;;;;;7.10;5.20;;;;;;;;;;5039374;28;20033;-64
2021/06/19 12:34:44;;;;;;;7.72;5.13;;;;;;;;;;5041642;28;20039;-65
2021/06/19 12:37:09;;;;;;;7.95;5.40;;;;;;;;;;5041379;28;20396;-63
2021/06/19 12:39:35;;;;;;;7.45;5.28;;;;;;;;;;5026609;28;20029;-62
2021/06/19 12:42:00;;;;;;;6.43;5.30;;;;;;;;;;5044240;28;20016;-63
2021/06/19 12:44:25;;;;;;;8.93;5.30;;;;;;;;;;5046752;28;20213;-63
2021/06/19 12:47:13;;;;;;;6.28;4.93;;;;;;;;;;5042730;28;20033;-62
2021/06/19 12:49:55;;;;;;;10.07;5.30;;;;;;;;;;5041415;28;20535;-62
2021/06/19 12:52:21;;;;;;;8.75;5.55;;;;;;;;;;5043105;28;20029;-63
2021/06/19 12:54:46;;;;;;;6.72;4.93;;;;;;;;;;5044192;28;20035;-63
2021/06/19 12:57:16;;;;;;;10.45;5.63;;;;;;;;;;5044906;28;20025;-62
2021/06/19 12:59:48;;;;;;;7.90;5.20;;;;;;;;;;5041629;28;20515;-63
2021/06/19 13:02:13;;;;;;;8.38;5.43;;;;;;;;;;5042805;28;20037;-63
2021/06/19 13:04:38;;;;;;;8.95;5.40;;;;;;;;;;5043088;28;20029;-62
2021/06/19 13:07:13;;;;;;;8.77;5.13;;;;;;;;;;5045039;28;20103;-55
2021/06/19 13:09:51;;;;;;;11.80;5.20;;;;;;;;;;5045064;28;20017;-62
2021/06/19 13:12:20;;;;;;;20.08;6.75;;;;;;;;;;5040360;28;20050;-61
2021/06/19 13:14:47;;;;;;;10.55;5.38;;;;;;;;;;5043874;28;20048;-62
2021/06/19 13:17:13;;;;;;;15.90;5.55;;;;;;;;;;5043148;28;20413;-63
2021/06/19 13:19:40;;;;;;;15.10;6.13;;;;;;;;;;5044763;28;20086;-60
2021/06/19 13:22:06;;;;;;;13.18;5.70;;;;;;;;;;5043562;28;20044;-64
2021/06/19 13:24:33;;;;;;;11.40;5.72;;;;;;;;;;5045713;28;20063;-63
2021/06/19 13:27:16;;;;;;;16.00;5.97;;;;;;;;;;5047611;28;20040;-57
2021/06/19 13:29:42;;;;;;;10.05;5.85;;;;;;;;;;5047775;28;20035;-62
2021/06/19 13:32:08;;;;;;;8.93;5.38;;;;;;;;;;5035508;28;20033;-60
2021/06/19 13:34:35;;;;;;;7.50;5.55;;;;;;;;;;5045196;28;20033;-62
2021/06/19 13:37:07;;;;;;;11.50;5.10;;;;;;;;;;5049044;28;20025;-61
2021/06/19 13:39:34;;;;;;;10.30;5.82;;;;;;;;;;5045614;28;20056;-63
2021/06/19 13:42:08;;;;;;;13.93;5.50;;;;;;;;;;5049902;28;20024;-61
2021/06/19 13:44:38;;;;;;;8.50;5.80;;;;;;;;;;5041185;28;20432;-63
2021/06/19 13:47:08;;;;;;;11.52;5.30;;;;;;;;;;5046585;28;20033;-62
2021/06/19 13:49:33;;;;;;;10.70;5.47;;;;;;;;;;5012740;28;20029;-65
